MMPR/PVR METAR and TAF weather

Enter ICAO airport designator
Station Type Date Time Source
MMPR METAR 2022/11/30 16:42 UTC NOAA

MMPR 301642Z 00000KT 15SM SKC 26/17 A2991


Station Type Date Time Source
MMPR Decoded METAR 2022/11/30 16:42 UTC NOAA

Puerto Vallarta / Lic, Mexico (MMPR) 20-41N 105-15W
Nov 30, 2022 - 11:42 AM EST / 2022.11.30 1642 UTC
Wind: Calm:0
Visibility: 15 mile(s):0
Sky conditions: clear
Temperature: 78 F (26 C)
Dew Point: 62 F (17 C)
Relative Humidity: 57%
Pressure (altimeter): 29.91 in. Hg (1012 hPa)
ob: MMPR 301642Z 00000KT 15SM SKC 26/17 A2991
cycle: 16

Station Type Date Time Source
MMPR TAF 2022/11/30 12:28 UTC NOAA

TAF MMPR 301022Z 3012/0118 04005KT P6SM SKC TX27/3019Z TN16/3012Z
FM301800 23007KT P6SM BKN250
FM010600 34005KT P6SM SKC
FM011700 23008KT P6SM BKN250

Example: see airport list